createdAt,value
2019-01-25T00:00:15.534Z,-4.02
2019-01-25T00:01:15.576Z,-4.04
2019-01-25T00:02:15.841Z,-4.04
2019-01-25T00:03:16.110Z,-4.05
2019-01-25T00:04:15.380Z,-4.04
2019-01-25T00:05:15.650Z,-4.02
2019-01-25T00:06:15.921Z,-4.02
2019-01-25T00:07:16.178Z,-4.04
2019-01-25T00:08:15.438Z,-4.08
2019-01-25T00:09:15.710Z,-4.08
2019-01-25T00:10:15.978Z,-4.05
2019-01-25T00:11:16.018Z,-4.05
2019-01-25T00:12:15.291Z,-4.04
2019-01-25T00:13:15.551Z,-4.06
2019-01-25T00:14:15.820Z,-4.05
2019-01-25T00:15:16.087Z,-4.05
2019-01-25T00:16:15.349Z,-4.04
2019-01-25T00:17:15.677Z,-4.06
2019-01-25T00:18:16.040Z,-4.05
2019-01-25T00:19:15.297Z,-4.05
2019-01-25T00:20:15.572Z,-4.08
2019-01-25T00:21:15.624Z,-4.05
2019-01-25T00:22:15.884Z,-4.05
2019-01-25T00:23:16.152Z,-4.02
2019-01-25T00:24:15.418Z,-4.05
2019-01-25T00:25:15.697Z,-4.08
2019-01-25T00:26:15.970Z,-4.11
2019-01-25T00:27:15.265Z,-4.09
2019-01-25T00:28:15.583Z,-4.08
2019-01-25T00:29:15.858Z,-4.06
2019-01-25T00:30:16.136Z,-4.11
2019-01-25T00:31:16.185Z,-4.05
2019-01-25T00:32:15.448Z,-4.09
2019-01-25T00:33:15.703Z,-4.05
2019-01-25T00:34:15.970Z,-4.05
2019-01-25T00:35:15.244Z,-4.06
2019-01-25T00:36:15.533Z,-4.08
2019-01-25T00:37:16.001Z,-4.01
2019-01-25T00:38:15.280Z,-4.08
2019-01-25T00:39:15.542Z,-4.09
2019-01-25T00:40:15.820Z,-4.12
2019-01-25T00:41:15.866Z,-4.12
2019-01-25T00:42:16.418Z,-4.09
2019-01-25T00:43:15.689Z,-4.09
2019-01-25T00:44:15.952Z,-4.04
2019-01-25T00:45:16.231Z,-4.12
2019-01-25T00:46:15.490Z,-4.12
2019-01-25T00:47:15.761Z,-4.14
2019-01-25T00:48:16.036Z,-4.14
2019-01-25T00:49:15.265Z,-4.12
2019-01-25T00:50:15.530Z,-4.11
2019-01-25T00:51:15.581Z,-4.09
2019-01-25T00:52:15.847Z,-4.08
2019-01-25T00:53:16.136Z,-4.05
2019-01-25T00:54:15.410Z,-4.04
2019-01-25T00:55:15.674Z,-4.08
2019-01-25T00:56:15.934Z,-4.12
2019-01-25T00:57:16.198Z,-4.09
2019-01-25T00:58:15.465Z,-4.09
2019-01-25T00:59:15.743Z,-4.12
2019-01-25T01:00:16.020Z,-4.11
2019-01-25T01:01:16.053Z,-4.14
2019-01-25T01:02:15.326Z,-4.14
2019-01-25T01:03:15.594Z,-4.16
2019-01-25T01:04:15.865Z,-4.19
2019-01-25T01:05:16.137Z,-4.18
2019-01-25T01:06:15.407Z,-4.19
2019-01-25T01:07:15.664Z,-4.21
2019-01-25T01:08:15.940Z,-4.18
2019-01-25T01:09:16.199Z,-4.18
2019-01-25T01:10:15.472Z,-4.18
2019-01-25T01:11:15.529Z,-4.18
2019-01-25T01:12:15.792Z,-4.18
2019-01-25T01:13:16.051Z,-4.19
2019-01-25T01:14:15.321Z,-4.22
2019-01-25T01:15:15.602Z,-4.21
2019-01-25T01:16:15.869Z,-4.21
2019-01-25T01:17:16.132Z,-4.22
2019-01-25T01:18:15.412Z,-4.15
2019-01-25T01:19:15.708Z,-4.21
2019-01-25T01:20:15.997Z,-4.23
2019-01-25T01:21:16.012Z,-4.26
2019-01-25T01:22:15.273Z,-4.23
2019-01-25T01:23:15.542Z,-4.23
2019-01-25T01:24:15.813Z,-4.22
2019-01-25T01:25:16.079Z,-4.26
2019-01-25T01:26:15.339Z,-4.27
2019-01-25T01:27:15.607Z,-4.18
2019-01-25T01:28:15.870Z,-4.22
2019-01-25T01:29:16.141Z,-4.22
2019-01-25T01:30:15.413Z,-4.26
2019-01-25T01:31:15.458Z,-4.27
2019-01-25T01:32:15.718Z,-4.30
2019-01-25T01:33:16.010Z,-4.27
2019-01-25T01:34:15.290Z,-4.25
2019-01-25T01:35:15.547Z,-4.25
2019-01-25T01:36:15.833Z,-4.27
2019-01-25T01:37:16.093Z,-4.30
2019-01-25T01:38:15.344Z,-4.35
2019-01-25T01:39:15.603Z,-4.32
2019-01-25T01:40:21.692Z,-4.32
2019-01-25T01:41:15.905Z,-4.29
2019-01-25T01:42:16.164Z,-4.32
2019-01-25T01:43:15.426Z,-4.33
2019-01-25T01:44:15.701Z,-4.29
2019-01-25T01:45:15.977Z,-4.30
2019-01-25T01:46:15.237Z,-4.33
2019-01-25T01:47:15.492Z,-4.30
2019-01-25T01:48:15.761Z,-4.32
2019-01-25T01:49:16.024Z,-4.32
2019-01-25T01:50:15.298Z,-4.33
2019-01-25T01:51:15.330Z,-4.35
2019-01-25T01:52:15.591Z,-4.36
2019-01-25T01:53:15.849Z,-4.33
2019-01-25T01:54:16.098Z,-4.32
2019-01-25T01:55:15.378Z,-4.33
2019-01-25T01:56:15.651Z,-4.32
2019-01-25T01:57:15.903Z,-4.32
2019-01-25T01:58:16.164Z,-4.27
2019-01-25T01:59:15.429Z,-4.29
2019-01-25T02:00:15.715Z,-4.30
2019-01-25T02:01:15.739Z,-4.29
2019-01-25T02:02:16.010Z,-4.35
2019-01-25T02:03:15.273Z,-4.37
2019-01-25T02:04:15.534Z,-4.35
2019-01-25T02:05:15.805Z,-4.33
2019-01-25T02:06:16.068Z,-4.36
2019-01-25T02:07:15.331Z,-4.39
2019-01-25T02:08:15.604Z,-4.39
2019-01-25T02:09:15.869Z,-4.37
2019-01-25T02:10:16.148Z,-4.45
2019-01-25T02:11:16.172Z,-4.43
2019-01-25T02:12:15.435Z,-4.42
2019-01-25T02:13:15.694Z,-4.39
2019-01-25T02:14:15.980Z,-4.37
2019-01-25T02:15:15.249Z,-4.35
2019-01-25T02:16:15.531Z,-4.46
2019-01-25T02:17:15.806Z,-4.35
2019-01-25T02:18:16.074Z,-4.42
2019-01-25T02:19:15.335Z,-4.45
2019-01-25T02:20:15.618Z,-4.43
2019-01-25T02:21:15.658Z,-4.42
2019-01-25T02:22:15.917Z,-4.42
2019-01-25T02:23:16.180Z,-4.47
2019-01-25T02:24:15.449Z,-4.46
2019-01-25T02:25:15.703Z,-4.40
2019-01-25T02:26:15.970Z,-4.46
2019-01-25T02:27:15.223Z,-4.43
2019-01-25T02:28:15.487Z,-4.43
2019-01-25T02:29:15.754Z,-4.42
2019-01-25T02:30:16.020Z,-4.46
2019-01-25T02:31:16.060Z,-4.43
2019-01-25T02:32:15.329Z,-4.40
2019-01-25T02:33:15.607Z,-4.39
2019-01-25T02:34:15.885Z,-4.40
2019-01-25T02:35:16.146Z,-4.43
2019-01-25T02:36:15.410Z,-4.43
2019-01-25T02:37:15.677Z,-4.43
2019-01-25T02:38:15.940Z,-4.45
2019-01-25T02:39:16.231Z,-4.45
2019-01-25T02:40:15.522Z,-4.49
2019-01-25T02:41:15.572Z,-4.52
2019-01-25T02:42:15.843Z,-4.50
2019-01-25T02:43:16.108Z,-4.50
2019-01-25T02:44:15.386Z,-4.46
2019-01-25T02:45:15.652Z,-4.49
2019-01-25T02:46:15.918Z,-4.40
2019-01-25T02:47:16.191Z,-4.45
2019-01-25T02:48:15.464Z,-4.47
2019-01-25T02:49:15.722Z,-4.47
2019-01-25T02:50:16.008Z,-4.46
2019-01-25T02:51:16.057Z,-4.47
2019-01-25T02:52:15.327Z,-4.46
2019-01-25T02:53:15.579Z,-4.46
2019-01-25T02:54:15.896Z,-4.49
2019-01-25T02:55:16.178Z,-4.47
2019-01-25T02:56:15.483Z,-4.39
2019-01-25T02:57:15.747Z,-4.49
2019-01-25T02:58:16.020Z,-4.49
2019-01-25T02:59:15.277Z,-4.47
2019-01-25T03:00:15.563Z,-4.52
2019-01-25T03:01:15.609Z,-4.45
2019-01-25T03:02:15.872Z,-4.42
2019-01-25T03:03:16.151Z,-4.47
2019-01-25T03:04:15.432Z,-4.47
2019-01-25T03:05:15.728Z,-4.49
2019-01-25T03:06:15.994Z,-4.49
2019-01-25T03:07:15.267Z,-4.49
2019-01-25T03:08:15.555Z,-4.50
2019-01-25T03:09:15.814Z,-4.50
2019-01-25T03:10:16.087Z,-4.52
2019-01-25T03:11:16.134Z,-4.52
2019-01-25T03:12:15.409Z,-4.46
2019-01-25T03:13:15.665Z,-4.46
2019-01-25T03:14:15.927Z,-4.49
2019-01-25T03:15:16.199Z,-4.50
2019-01-25T03:16:15.470Z,-4.53
2019-01-25T03:17:15.746Z,-4.49
2019-01-25T03:18:16.017Z,-4.47
2019-01-25T03:19:15.278Z,-4.52
2019-01-25T03:20:15.547Z,-4.50
2019-01-25T03:21:15.630Z,-4.52
2019-01-25T03:22:15.892Z,-4.54
2019-01-25T03:23:16.161Z,-4.52
2019-01-25T03:24:15.430Z,-4.54
2019-01-25T03:25:15.704Z,-4.52
2019-01-25T03:26:15.975Z,-4.52
2019-01-25T03:27:15.297Z,-4.52
2019-01-25T03:28:15.565Z,-4.50
2019-01-25T03:29:15.831Z,-4.50
2019-01-25T03:30:16.168Z,-4.54
2019-01-25T03:31:16.179Z,-4.54
2019-01-25T03:32:15.465Z,-4.57
2019-01-25T03:33:15.741Z,-4.57
2019-01-25T03:34:16.016Z,-4.57
2019-01-25T03:35:15.292Z,-4.54
2019-01-25T03:36:15.564Z,-4.54
2019-01-25T03:37:15.834Z,-4.56
2019-01-25T03:38:16.127Z,-4.52
2019-01-25T03:39:15.404Z,-4.54
2019-01-25T03:40:15.677Z,-4.54
2019-01-25T03:41:15.726Z,-4.56
2019-01-25T03:42:16.000Z,-4.52
2019-01-25T03:43:15.268Z,-4.50
2019-01-25T03:44:15.532Z,-4.52
2019-01-25T03:45:15.817Z,-4.50
2019-01-25T03:46:16.094Z,-4.53
2019-01-25T03:47:15.356Z,-4.54
2019-01-25T03:48:15.638Z,-4.54
2019-01-25T03:49:15.909Z,-4.53
2019-01-25T03:50:16.206Z,-4.52
2019-01-25T03:51:15.234Z,-4.49
2019-01-25T03:52:15.500Z,-4.53
2019-01-25T03:53:15.770Z,-4.53
2019-01-25T03:54:16.031Z,-4.50
2019-01-25T03:55:15.293Z,-4.46
2019-01-25T03:56:15.555Z,-4.49
2019-01-25T03:57:15.817Z,-4.49
2019-01-25T03:58:16.082Z,-4.52
2019-01-25T03:59:15.347Z,-4.50
2019-01-25T04:00:15.639Z,-4.50
2019-01-25T04:01:15.762Z,-4.50
2019-01-25T04:02:16.046Z,-4.47
2019-01-25T04:03:15.308Z,-4.50
2019-01-25T04:04:15.567Z,-4.49
2019-01-25T04:05:15.850Z,-4.47
2019-01-25T04:06:16.116Z,-4.52
2019-01-25T04:07:15.376Z,-4.47
2019-01-25T04:08:15.642Z,-4.47
2019-01-25T04:09:15.909Z,-4.46
2019-01-25T04:10:16.210Z,-4.45
2019-01-25T04:11:15.238Z,-4.45
2019-01-25T04:12:15.498Z,-4.49
2019-01-25T04:13:15.770Z,-4.49
2019-01-25T04:14:16.057Z,-4.47
2019-01-25T04:15:15.321Z,-4.45
2019-01-25T04:16:15.602Z,-4.45
2019-01-25T04:17:15.883Z,-4.47
2019-01-25T04:18:16.143Z,-4.46
2019-01-25T04:19:15.402Z,-4.46
2019-01-25T04:20:15.667Z,-4.47
2019-01-25T04:21:15.714Z,-4.46
2019-01-25T04:22:15.332Z,-4.45
2019-01-25T04:23:15.601Z,-4.40
2019-01-25T04:24:15.908Z,-4.42
2019-01-25T04:25:16.192Z,-4.43
2019-01-25T04:26:15.456Z,-4.43
2019-01-25T04:27:15.721Z,-4.43
2019-01-25T04:28:15.997Z,-4.47
2019-01-25T04:29:15.268Z,-4.45
2019-01-25T04:30:15.554Z,-4.43
2019-01-25T04:31:15.619Z,-4.42
2019-01-25T04:32:15.890Z,-4.42
2019-01-25T04:33:16.189Z,-4.42
2019-01-25T04:34:15.450Z,-4.43
2019-01-25T04:35:15.711Z,-4.40
2019-01-25T04:36:15.971Z,-4.43
2019-01-25T04:37:15.229Z,-4.42
2019-01-25T04:38:15.496Z,-4.43
2019-01-25T04:39:15.759Z,-4.37
2019-01-25T04:40:16.036Z,-4.40
2019-01-25T04:41:16.072Z,-4.37
2019-01-25T04:42:15.328Z,-4.37
2019-01-25T04:43:15.605Z,-4.40
2019-01-25T04:44:15.880Z,-4.40
2019-01-25T04:45:16.153Z,-4.35
2019-01-25T04:46:15.423Z,-4.37
2019-01-25T04:47:15.686Z,-4.40
2019-01-25T04:48:15.966Z,-4.39
2019-01-25T04:49:15.230Z,-4.37
2019-01-25T04:50:15.505Z,-4.37
2019-01-25T04:51:15.545Z,-4.39
2019-01-25T04:52:15.814Z,-4.39
2019-01-25T04:53:16.089Z,-4.36
2019-01-25T04:54:15.368Z,-4.36
2019-01-25T04:55:15.647Z,-4.37
2019-01-25T04:56:15.925Z,-4.39
2019-01-25T04:57:16.346Z,-4.40
2019-01-25T04:58:15.617Z,-4.36
2019-01-25T04:59:15.896Z,-4.39
2019-01-25T05:00:16.180Z,-4.36
2019-01-25T05:01:15.264Z,-4.35
2019-01-25T05:02:15.549Z,-4.36
2019-01-25T05:03:15.812Z,-4.36
2019-01-25T05:04:16.089Z,-4.36
2019-01-25T05:05:15.383Z,-4.37
2019-01-25T05:06:15.652Z,-4.37
2019-01-25T05:07:15.911Z,-4.37
2019-01-25T05:08:16.330Z,-4.37
2019-01-25T05:09:15.695Z,-4.35
2019-01-25T05:10:15.970Z,-4.36
2019-01-25T05:11:19.836Z,-4.39
2019-01-25T05:12:15.705Z,-4.36
2019-01-25T05:13:16.267Z,-4.32
2019-01-25T05:14:15.532Z,-4.35
2019-01-25T05:15:15.806Z,-4.32
2019-01-25T05:16:16.083Z,-4.35
2019-01-25T05:17:15.362Z,-4.32
2019-01-25T05:18:15.639Z,-4.36
2019-01-25T05:19:15.920Z,-4.30
2019-01-25T05:20:16.498Z,-4.36
2019-01-25T05:21:15.252Z,-4.36
2019-01-25T05:22:15.526Z,-4.37
2019-01-25T05:23:15.802Z,-4.37
2019-01-25T05:24:16.087Z,-4.37
2019-01-25T05:25:15.366Z,-4.37
2019-01-25T05:26:15.655Z,-4.35
2019-01-25T05:27:15.945Z,-4.35
2019-01-25T05:28:16.405Z,-4.36
2019-01-25T05:29:15.685Z,-4.32
2019-01-25T05:30:15.954Z,-4.33
2019-01-25T05:31:16.015Z,-4.32
2019-01-25T05:32:15.284Z,-4.32
2019-01-25T05:33:15.559Z,-4.36
2019-01-25T05:34:15.842Z,-4.39
2019-01-25T05:35:16.110Z,-4.35
2019-01-25T05:36:15.386Z,-4.33
2019-01-25T05:37:15.671Z,-4.33
2019-01-25T05:38:15.951Z,-4.33
2019-01-25T05:39:16.209Z,-4.35
2019-01-25T05:40:15.476Z,-4.32
2019-01-25T05:41:15.533Z,-4.35
2019-01-25T05:42:15.791Z,-4.35
2019-01-25T05:43:16.041Z,-4.36
2019-01-25T05:44:15.359Z,-4.35
2019-01-25T05:45:15.628Z,-4.35
2019-01-25T05:46:15.885Z,-4.33
2019-01-25T05:47:16.144Z,-4.33
2019-01-25T05:48:15.424Z,-4.30
2019-01-25T05:49:15.699Z,-4.32
2019-01-25T05:50:15.979Z,-4.33
2019-01-25T05:51:16.017Z,-4.32
2019-01-25T05:52:15.279Z,-4.35
2019-01-25T05:53:15.534Z,-4.32
2019-01-25T05:54:15.801Z,-4.29
2019-01-25T05:55:16.332Z,-4.32
2019-01-25T05:56:15.603Z,-4.29
2019-01-25T05:57:15.862Z,-4.30
2019-01-25T05:58:16.130Z,-4.30
2019-01-25T05:59:15.399Z,-4.30
2019-01-25T06:00:15.661Z,-4.29
2019-01-25T06:01:15.724Z,-4.27
2019-01-25T06:02:15.998Z,-4.23
2019-01-25T06:03:15.283Z,-4.25
2019-01-25T06:04:15.562Z,-4.27
2019-01-25T06:05:15.836Z,-4.26
2019-01-25T06:06:16.110Z,-4.29
2019-01-25T06:07:15.373Z,-4.29
2019-01-25T06:08:15.638Z,-4.29
2019-01-25T06:09:15.913Z,-4.26
2019-01-25T06:10:16.201Z,-4.26
2019-01-25T06:11:15.239Z,-4.27
2019-01-25T06:12:15.497Z,-4.30
2019-01-25T06:13:15.780Z,-4.26
2019-01-25T06:14:16.044Z,-4.26
2019-01-25T06:15:15.319Z,-4.19
2019-01-25T06:16:15.592Z,-4.22
2019-01-25T06:17:15.850Z,-4.27
2019-01-25T06:18:16.142Z,-4.25
2019-01-25T06:19:15.410Z,-4.23
2019-01-25T06:20:15.698Z,-4.26
2019-01-25T06:21:15.752Z,-4.25
2019-01-25T06:22:16.018Z,-4.26
2019-01-25T06:23:15.277Z,-4.25
2019-01-25T06:24:15.552Z,-4.26
2019-01-25T06:25:15.814Z,-4.27
2019-01-25T06:26:16.077Z,-4.23
2019-01-25T06:27:15.342Z,-4.25
2019-01-25T06:28:15.600Z,-4.25
2019-01-25T06:29:15.865Z,-4.22
2019-01-25T06:30:16.885Z,-4.22
2019-01-25T06:31:16.188Z,-4.25
2019-01-25T06:32:15.468Z,-4.23
2019-01-25T06:33:15.733Z,-4.22
2019-01-25T06:34:15.995Z,-4.23
2019-01-25T06:35:15.282Z,-4.22
2019-01-25T06:36:15.624Z,-4.21
2019-01-25T06:37:15.899Z,-4.19
2019-01-25T06:38:16.180Z,-4.21
2019-01-25T06:39:15.440Z,-4.22
2019-01-25T06:40:15.740Z,-4.19
2019-01-25T06:41:15.770Z,-4.22
2019-01-25T06:42:16.033Z,-4.18
2019-01-25T06:43:15.297Z,-4.12
2019-01-25T06:44:15.561Z,-4.16
2019-01-25T06:45:15.834Z,-4.19
2019-01-25T06:46:16.112Z,-4.22
2019-01-25T06:47:15.364Z,-4.15
2019-01-25T06:48:15.622Z,-4.16
2019-01-25T06:49:15.896Z,-4.18
2019-01-25T06:50:16.178Z,-4.18
2019-01-25T06:51:16.211Z,-4.18
2019-01-25T06:52:15.485Z,-4.21
2019-01-25T06:53:15.751Z,-4.21
2019-01-25T06:54:16.016Z,-4.19
2019-01-25T06:55:15.304Z,-4.18
2019-01-25T06:56:15.571Z,-4.16
2019-01-25T06:57:15.842Z,-4.15
2019-01-25T06:58:16.103Z,-4.22
2019-01-25T06:59:15.379Z,-4.18
2019-01-25T07:00:15.655Z,-4.16
2019-01-25T07:01:15.714Z,-4.15
2019-01-25T07:02:15.969Z,-4.16
2019-01-25T07:03:15.228Z,-4.16
2019-01-25T07:04:15.486Z,-4.18
2019-01-25T07:05:15.755Z,-4.16
2019-01-25T07:06:16.021Z,-4.14
2019-01-25T07:07:15.293Z,-4.14
2019-01-25T07:08:15.563Z,-4.09
2019-01-25T07:09:15.829Z,-4.11
2019-01-25T07:10:16.122Z,-4.11
2019-01-25T07:11:16.149Z,-4.14
2019-01-25T07:12:15.414Z,-4.16
2019-01-25T07:13:15.677Z,-4.19
2019-01-25T07:14:15.941Z,-4.15
2019-01-25T07:15:16.205Z,-4.15
2019-01-25T07:16:15.475Z,-4.11
2019-01-25T07:17:15.753Z,-4.11
2019-01-25T07:18:16.013Z,-4.11
2019-01-25T07:19:15.284Z,-4.09
2019-01-25T07:20:15.551Z,-4.11
2019-01-25T07:21:15.616Z,-4.05
2019-01-25T07:22:15.881Z,-4.05
2019-01-25T07:23:16.155Z,-4.05
2019-01-25T07:24:15.430Z,-4.09
2019-01-25T07:25:15.715Z,-4.09
2019-01-25T07:26:15.981Z,-4.05
2019-01-25T07:27:15.257Z,-4.01
2019-01-25T07:28:15.528Z,-3.98
2019-01-25T07:29:15.794Z,-3.97
2019-01-25T07:30:16.113Z,-4.01
2019-01-25T07:31:16.151Z,-3.97
2019-01-25T07:32:15.463Z,-3.98
2019-01-25T07:33:15.737Z,-3.93
2019-01-25T07:34:16.047Z,-3.90
2019-01-25T07:35:15.327Z,-3.93
2019-01-25T07:36:15.602Z,-3.94
2019-01-25T07:37:15.870Z,-3.97
2019-01-25T07:38:16.151Z,-3.98
2019-01-25T07:39:15.422Z,-3.97
2019-01-25T07:40:15.768Z,-3.93
2019-01-25T07:41:15.766Z,-3.91
2019-01-25T07:42:16.065Z,-3.90
2019-01-25T07:43:15.345Z,-3.90
2019-01-25T07:44:15.631Z,-3.94
2019-01-25T07:45:15.929Z,-3.94
2019-01-25T07:46:16.204Z,-3.91
2019-01-25T07:47:15.476Z,-3.93
2019-01-25T07:48:15.780Z,-3.90
2019-01-25T07:49:16.094Z,-3.86
2019-01-25T07:50:15.406Z,-3.90
2019-01-25T07:51:15.464Z,-3.81
2019-01-25T07:52:15.794Z,-3.86
2019-01-25T07:53:16.066Z,-3.78
2019-01-25T07:54:15.344Z,-3.78
2019-01-25T07:55:15.631Z,-3.78
2019-01-25T07:56:15.928Z,-3.81
2019-01-25T07:57:15.444Z,-3.77
2019-01-25T07:58:15.736Z,-3.74
2019-01-25T07:59:16.007Z,-3.73
2019-01-25T08:00:15.342Z,-3.73
2019-01-25T08:01:15.356Z,-3.76
2019-01-25T08:02:15.657Z,-3.74
2019-01-25T08:03:15.942Z,-3.70
2019-01-25T08:04:15.213Z,-3.71
2019-01-25T08:05:15.504Z,-3.71
2019-01-25T08:06:15.797Z,-3.68
2019-01-25T08:07:16.120Z,-3.77
2019-01-25T08:08:15.390Z,-3.68
2019-01-25T08:09:15.671Z,-3.66
2019-01-25T08:10:15.970Z,-3.68
2019-01-25T08:11:16.000Z,-3.73
2019-01-25T08:12:15.278Z,-3.70
2019-01-25T08:13:15.565Z,-3.64
2019-01-25T08:14:15.919Z,-3.68
2019-01-25T08:15:15.274Z,-3.73
2019-01-25T08:16:15.599Z,-3.74
2019-01-25T08:17:15.883Z,-3.66
2019-01-25T08:18:16.176Z,-3.68
2019-01-25T08:19:15.523Z,-3.67
2019-01-25T08:20:15.804Z,-3.61
2019-01-25T08:21:15.844Z,-3.63
2019-01-25T08:22:16.132Z,-3.61
2019-01-25T08:23:15.396Z,-3.59
2019-01-25T08:24:15.888Z,-3.54
2019-01-25T08:25:16.176Z,-3.53
2019-01-25T08:26:15.605Z,-3.51
2019-01-25T08:27:16.013Z,-3.54
2019-01-25T08:28:15.293Z,-3.64
2019-01-25T08:29:15.576Z,-3.61
2019-01-25T08:30:15.862Z,-3.61
2019-01-25T08:31:15.903Z,-3.60
2019-01-25T08:32:16.173Z,-3.56
2019-01-25T08:33:15.467Z,-3.54
2019-01-25T08:34:15.767Z,-3.53
2019-01-25T08:35:16.039Z,-3.57
2019-01-25T08:36:15.333Z,-3.57
2019-01-25T08:37:15.696Z,-3.49
2019-01-25T08:38:16.021Z,-3.43
2019-01-25T08:39:15.601Z,-3.40
2019-01-25T08:40:16.074Z,-3.43
2019-01-25T08:41:15.971Z,-3.39
2019-01-25T08:42:15.731Z,-3.40
2019-01-25T08:43:15.344Z,-3.40
2019-01-25T08:44:15.922Z,-3.39
2019-01-25T08:45:15.306Z,-3.32
2019-01-25T08:46:15.650Z,-3.35
2019-01-25T08:47:15.918Z,-3.36
2019-01-25T08:48:15.247Z,-3.46
2019-01-25T08:49:15.556Z,-3.40
2019-01-25T08:50:15.891Z,-3.36
2019-01-25T08:51:15.920Z,-3.41
2019-01-25T08:52:15.298Z,-3.39
2019-01-25T08:53:15.644Z,-3.28
2019-01-25T08:54:16.092Z,-3.36
2019-01-25T08:55:15.494Z,-3.36
2019-01-25T08:56:15.888Z,-3.36
2019-01-25T08:57:16.157Z,-3.40
2019-01-25T08:58:15.471Z,-3.43
2019-01-25T08:59:15.785Z,-3.57
2019-01-25T09:00:16.094Z,-3.64
2019-01-25T09:01:16.132Z,-3.60
2019-01-25T09:02:15.389Z,-3.61
2019-01-25T09:03:15.662Z,-3.50
2019-01-25T09:04:15.922Z,-3.54
2019-01-25T09:05:16.197Z,-3.47
2019-01-25T09:06:15.468Z,-3.44
2019-01-25T09:07:15.730Z,-3.39
2019-01-25T09:08:15.990Z,-3.29
2019-01-25T09:09:15.518Z,-3.23
2019-01-25T09:10:15.798Z,-3.46
2019-01-25T09:11:15.843Z,-3.44
2019-01-25T09:12:23.048Z,-3.35
2019-01-25T09:13:15.871Z,-3.29
2019-01-25T09:14:16.177Z,-3.33
2019-01-25T09:15:15.466Z,-3.29
2019-01-25T09:16:15.737Z,-3.12
2019-01-25T09:17:15.992Z,-3.05
2019-01-25T09:18:15.260Z,-3.09
2019-01-25T09:19:15.526Z,-3.16
2019-01-25T09:20:15.899Z,-3.16
2019-01-25T09:21:15.834Z,-3.09
2019-01-25T09:22:16.100Z,-3.09
2019-01-25T09:23:15.365Z,-3.23
2019-01-25T09:24:15.640Z,-3.23
2019-01-25T09:25:15.902Z,-3.07
2019-01-25T09:26:16.176Z,-3.01
2019-01-25T09:27:15.438Z,-3.08
2019-01-25T09:28:15.694Z,-3.08
2019-01-25T09:29:15.956Z,-3.08
2019-01-25T09:30:15.242Z,-3.05
2019-01-25T09:31:15.287Z,-3.05
2019-01-25T09:32:15.553Z,-2.78
2019-01-25T09:33:15.828Z,-2.69
2019-01-25T09:34:16.095Z,-2.74
2019-01-25T09:35:15.353Z,-2.84
2019-01-25T09:36:15.621Z,-2.82
2019-01-25T09:37:15.880Z,-3.00
2019-01-25T09:38:16.152Z,-3.01
2019-01-25T09:39:15.423Z,-3.04
2019-01-25T09:40:15.693Z,-2.95
2019-01-25T09:41:15.730Z,-2.90
2019-01-25T09:42:15.993Z,-2.94
2019-01-25T09:43:15.266Z,-2.67
2019-01-25T09:44:15.523Z,-2.70
2019-01-25T09:45:15.796Z,-2.56
2019-01-25T09:46:16.062Z,-2.74
2019-01-25T09:47:15.326Z,-2.78
2019-01-25T09:48:15.589Z,-2.78
2019-01-25T09:49:15.849Z,-2.80
2019-01-25T09:50:16.454Z,-2.82
2019-01-25T09:51:16.152Z,-2.80
2019-01-25T09:52:15.422Z,-2.84
2019-01-25T09:53:15.692Z,-2.81
2019-01-25T09:54:15.952Z,-2.87
2019-01-25T09:55:15.223Z,-3.00
2019-01-25T09:56:15.492Z,-3.07
2019-01-25T09:57:15.760Z,-3.00
2019-01-25T09:58:16.026Z,-2.98
2019-01-25T09:59:15.302Z,-2.95
2019-01-25T10:00:15.588Z,-2.95
2019-01-25T10:01:15.641Z,-3.05
2019-01-25T10:02:15.911Z,-3.08
2019-01-25T10:03:16.212Z,-3.16
2019-01-25T10:04:15.484Z,-3.07
2019-01-25T10:05:15.759Z,-2.84
2019-01-25T10:06:16.026Z,-2.94
2019-01-25T10:07:15.297Z,-2.88
2019-01-25T10:08:15.565Z,-2.76
2019-01-25T10:09:15.841Z,-2.87
2019-01-25T10:10:16.115Z,-2.81
2019-01-25T10:11:16.158Z,-2.85
2019-01-25T10:12:15.423Z,-2.82
2019-01-25T10:13:15.682Z,-2.56
2019-01-25T10:14:15.987Z,-2.42
2019-01-25T10:15:15.250Z,-2.31
2019-01-25T10:16:15.507Z,-2.73
2019-01-25T10:17:15.772Z,-2.56
2019-01-25T10:18:16.036Z,-2.36
2019-01-25T10:19:15.302Z,-2.21
2019-01-25T10:20:15.579Z,-2.53
2019-01-25T10:21:15.642Z,-2.63
2019-01-25T10:22:15.897Z,-2.64
2019-01-25T10:23:16.165Z,-2.64
2019-01-25T10:24:15.435Z,-2.60
2019-01-25T10:25:15.717Z,-2.53
2019-01-25T10:26:15.980Z,-2.39
2019-01-25T10:27:15.240Z,-2.35
2019-01-25T10:28:15.509Z,-2.45
2019-01-25T10:29:15.794Z,-2.42
2019-01-25T10:30:16.083Z,-2.41
2019-01-25T10:31:16.128Z,-2.29
2019-01-25T10:32:15.389Z,-2.26
2019-01-25T10:33:15.666Z,-2.31
2019-01-25T10:34:15.975Z,-2.23
2019-01-25T10:35:15.258Z,-2.29
2019-01-25T10:36:15.539Z,-2.33
2019-01-25T10:37:15.803Z,-2.19
2019-01-25T10:38:16.080Z,-2.04
2019-01-25T10:39:15.348Z,-2.15
2019-01-25T10:40:15.610Z,-2.25
2019-01-25T10:41:15.665Z,-2.21
2019-01-25T10:42:15.927Z,-2.16
2019-01-25T10:43:16.185Z,-2.15
2019-01-25T10:44:15.449Z,-2.22
2019-01-25T10:45:15.716Z,-2.19
2019-01-25T10:46:15.988Z,-2.43
2019-01-25T10:47:15.250Z,-2.33
2019-01-25T10:48:15.522Z,-2.19
2019-01-25T10:49:15.791Z,-2.64
2019-01-25T10:50:16.094Z,-2.63
2019-01-25T10:51:16.119Z,-2.48
2019-01-25T10:52:15.379Z,-2.35
2019-01-25T10:53:15.653Z,-2.32
2019-01-25T10:54:15.913Z,-2.54
2019-01-25T10:55:16.190Z,-2.76
2019-01-25T10:56:15.465Z,-2.80
2019-01-25T10:57:15.732Z,-2.78
2019-01-25T10:58:16.003Z,-2.85
2019-01-25T10:59:15.268Z,-2.92
2019-01-25T11:00:15.553Z,-2.81
2019-01-25T11:01:15.615Z,-2.94
2019-01-25T11:02:15.877Z,-3.04
2019-01-25T11:03:16.144Z,-3.00
2019-01-25T11:04:15.424Z,-2.91
2019-01-25T11:05:15.695Z,-2.90
2019-01-25T11:06:15.961Z,-2.95
2019-01-25T11:07:15.222Z,-2.94
2019-01-25T11:08:15.696Z,-2.94
2019-01-25T11:09:15.961Z,-2.77
2019-01-25T11:10:15.231Z,-2.70
2019-01-25T11:11:15.280Z,-2.74
2019-01-25T11:12:15.547Z,-2.56
2019-01-25T11:13:15.855Z,-2.38
2019-01-25T11:14:16.120Z,-2.22
2019-01-25T11:15:15.388Z,-2.04
2019-01-25T11:16:15.657Z,-1.98
2019-01-25T11:17:15.913Z,-2.04
2019-01-25T11:18:16.162Z,-2.38
2019-01-25T11:19:15.422Z,-2.42
2019-01-25T11:20:15.688Z,-2.39
2019-01-25T11:21:15.724Z,-2.25
2019-01-25T11:22:15.987Z,-2.14
2019-01-25T11:23:15.259Z,-2.16
2019-01-25T11:24:15.521Z,-2.16
2019-01-25T11:25:15.786Z,-1.92
2019-01-25T11:26:16.052Z,-2.11
2019-01-25T11:27:15.308Z,-2.14
2019-01-25T11:28:15.571Z,-2.29
2019-01-25T11:29:15.838Z,-2.31
2019-01-25T11:30:16.115Z,-2.27
2019-01-25T11:31:16.160Z,-2.27
2019-01-25T11:32:15.425Z,-2.53
2019-01-25T11:33:15.683Z,-2.53
2019-01-25T11:34:15.948Z,-2.32
2019-01-25T11:35:15.221Z,-2.41
2019-01-25T11:36:15.481Z,-2.45
2019-01-25T11:37:15.742Z,-2.49
2019-01-25T11:38:16.018Z,-2.35
2019-01-25T11:39:15.293Z,-2.21
2019-01-25T11:40:15.558Z,-2.16
2019-01-25T11:41:15.608Z,-2.02
2019-01-25T11:42:15.870Z,-2.15
2019-01-25T11:43:16.143Z,-2.16
2019-01-25T11:44:15.407Z,-2.54
2019-01-25T11:45:15.669Z,-2.53
2019-01-25T11:46:15.940Z,-2.33
2019-01-25T11:47:16.205Z,-2.33
2019-01-25T11:48:15.481Z,-2.29
2019-01-25T11:49:15.750Z,-2.38
2019-01-25T11:50:16.018Z,-2.32
2019-01-25T11:51:16.074Z,-2.27
2019-01-25T11:52:15.334Z,-2.27
2019-01-25T11:53:15.596Z,-2.18
2019-01-25T11:54:15.873Z,-1.95
2019-01-25T11:55:16.143Z,-1.94
2019-01-25T11:56:15.403Z,-2.11
2019-01-25T11:57:15.661Z,-2.09
2019-01-25T11:58:15.917Z,-2.09
2019-01-25T11:59:16.183Z,-2.23
2019-01-25T12:00:15.450Z,-2.32
2019-01-25T12:01:15.500Z,-2.32
2019-01-25T12:02:20.836Z,-2.27
2019-01-25T12:03:15.364Z,-2.42
2019-01-25T12:04:15.636Z,-2.16
2019-01-25T12:05:15.958Z,-2.04
2019-01-25T12:06:15.239Z,-2.04
2019-01-25T12:07:15.513Z,-1.97
2019-01-25T12:08:15.784Z,-2.05
2019-01-25T12:09:16.045Z,-1.97
2019-01-25T12:10:15.319Z,-2.22
2019-01-25T12:11:15.371Z,-2.22
2019-01-25T12:12:15.633Z,-1.98
2019-01-25T12:13:16.499Z,-2.05
2019-01-25T12:14:15.839Z,-1.84
2019-01-25T12:15:16.115Z,-1.86
2019-01-25T12:16:15.430Z,-1.91
2019-01-25T12:17:15.706Z,-2.05
2019-01-25T12:18:15.995Z,-2.11
2019-01-25T12:19:15.302Z,-2.11
2019-01-25T12:20:15.575Z,-2.14
2019-01-25T12:21:15.632Z,-2.04
2019-01-25T12:22:15.902Z,-1.98
2019-01-25T12:23:16.170Z,-2.05
2019-01-25T12:24:15.504Z,-1.99
2019-01-25T12:25:15.769Z,-1.91
2019-01-25T12:26:16.037Z,-1.86
2019-01-25T12:27:15.295Z,-1.86
2019-01-25T12:28:15.568Z,-1.90
2019-01-25T12:29:15.849Z,-1.70
2019-01-25T12:30:16.186Z,-1.86
2019-01-25T12:31:15.225Z,-1.91
2019-01-25T12:32:15.487Z,-1.99
2019-01-25T12:33:15.767Z,-2.09
2019-01-25T12:34:16.047Z,-1.90
2019-01-25T12:35:15.311Z,-2.08
2019-01-25T12:36:15.588Z,-1.98
2019-01-25T12:37:15.859Z,-1.97
2019-01-25T12:38:16.126Z,-1.99
2019-01-25T12:39:15.384Z,-2.12
2019-01-25T12:40:15.673Z,-2.16
2019-01-25T12:41:15.683Z,-2.12
2019-01-25T12:42:15.947Z,-2.18
2019-01-25T12:43:15.209Z,-1.81
2019-01-25T12:44:15.488Z,-1.84
2019-01-25T12:45:15.756Z,-1.80
2019-01-25T12:46:16.023Z,-1.76
2019-01-25T12:47:15.291Z,-1.90
2019-01-25T12:48:15.550Z,-1.64
2019-01-25T12:49:15.809Z,-1.67
2019-01-25T12:50:16.100Z,-1.68
2019-01-25T12:51:16.128Z,-1.74
2019-01-25T12:52:15.395Z,-1.90